createdAt,value
2023-01-27T00:00:44.511Z,545.00
2023-01-27T00:01:44.514Z,542.00
2023-01-27T00:02:44.549Z,545.00
2023-01-27T00:03:44.589Z,552.00
2023-01-27T00:04:44.529Z,549.00
2023-01-27T00:05:44.528Z,546.00
2023-01-27T00:06:44.540Z,547.00
2023-01-27T00:07:44.530Z,550.00
2023-01-27T00:08:44.557Z,548.00
2023-01-27T00:09:44.543Z,553.00
2023-01-27T00:10:44.542Z,544.00
2023-01-27T00:11:44.526Z,546.00
2023-01-27T00:12:44.536Z,552.00
2023-01-27T00:13:44.540Z,546.00
2023-01-27T00:14:44.547Z,537.00
2023-01-27T00:15:44.566Z,546.00
2023-01-27T00:16:44.574Z,546.00
2023-01-27T00:17:44.540Z,548.00
2023-01-27T00:18:44.562Z,549.00
2023-01-27T00:19:44.568Z,544.00
2023-01-27T00:20:44.581Z,544.00
2023-01-27T00:21:44.565Z,550.00
2023-01-27T00:22:44.581Z,549.00
2023-01-27T00:23:44.579Z,542.00
2023-01-27T00:24:44.570Z,545.00
2023-01-27T00:25:44.591Z,548.00
2023-01-27T00:26:44.585Z,546.00
2023-01-27T00:27:44.604Z,547.00
2023-01-27T00:28:44.614Z,547.00
2023-01-27T00:29:44.590Z,547.00
2023-01-27T00:30:44.615Z,548.00
2023-01-27T00:31:44.667Z,549.00
2023-01-27T00:32:44.647Z,549.00
2023-01-27T00:33:44.580Z,549.00
2023-01-27T00:34:44.595Z,549.00
2023-01-27T00:35:44.579Z,550.00
2023-01-27T00:36:44.601Z,552.00
2023-01-27T00:37:44.572Z,554.00
2023-01-27T00:38:44.556Z,554.00
2023-01-27T00:39:44.561Z,551.00
2023-01-27T00:40:44.562Z,547.00
2023-01-27T00:41:44.554Z,551.00
2023-01-27T00:42:44.546Z,552.00
2023-01-27T00:43:44.545Z,549.00
2023-01-27T00:44:44.553Z,549.00
2023-01-27T00:45:44.537Z,554.00
2023-01-27T00:46:44.582Z,553.00
2023-01-27T00:47:44.531Z,548.00
2023-01-27T00:48:44.533Z,554.00
2023-01-27T00:49:44.521Z,553.00
2023-01-27T00:50:44.508Z,548.00
2023-01-27T00:51:44.500Z,549.00
2023-01-27T00:52:44.489Z,551.00
2023-01-27T00:53:44.490Z,553.00
2023-01-27T00:54:44.480Z,552.00
2023-01-27T00:55:44.484Z,550.00
2023-01-27T00:56:44.459Z,550.00
2023-01-27T00:57:44.463Z,552.00
2023-01-27T00:58:44.466Z,553.00
2023-01-27T00:59:44.471Z,547.00
2023-01-27T01:00:44.457Z,553.00
2023-01-27T01:01:44.496Z,549.00
2023-01-27T01:02:44.531Z,547.00
2023-01-27T01:03:44.445Z,551.00
2023-01-27T01:04:44.440Z,553.00
2023-01-27T01:05:44.449Z,550.00
2023-01-27T01:06:44.440Z,551.00
2023-01-27T01:07:44.433Z,548.00
2023-01-27T01:08:44.424Z,550.00
2023-01-27T01:09:44.427Z,553.00
2023-01-27T01:10:44.423Z,548.00
2023-01-27T01:11:44.398Z,551.00
2023-01-27T01:12:44.406Z,546.00
2023-01-27T01:13:44.373Z,556.00
2023-01-27T01:14:44.389Z,557.00
2023-01-27T01:15:44.420Z,554.00
2023-01-27T01:16:44.376Z,546.00
2023-01-27T01:17:44.345Z,556.00
2023-01-27T01:18:44.356Z,550.00
2023-01-27T01:19:44.353Z,554.00
2023-01-27T01:20:44.347Z,553.00
2023-01-27T01:21:44.316Z,548.00
2023-01-27T01:22:44.313Z,550.00
2023-01-27T01:23:44.315Z,549.00
2023-01-27T01:24:44.332Z,552.00
2023-01-27T01:25:44.289Z,549.00
2023-01-27T01:26:44.293Z,553.00
2023-01-27T01:27:44.289Z,550.00
2023-01-27T01:28:44.284Z,550.00
2023-01-27T01:29:44.299Z,554.00
2023-01-27T01:30:44.298Z,546.00
2023-01-27T01:31:44.329Z,553.00
2023-01-27T01:32:44.269Z,551.00
2023-01-27T01:33:44.267Z,553.00
2023-01-27T01:34:44.292Z,552.00
2023-01-27T01:35:44.260Z,556.00
2023-01-27T01:36:44.270Z,550.00
2023-01-27T01:37:44.261Z,555.00
2023-01-27T01:38:44.269Z,550.00
2023-01-27T01:39:44.267Z,553.00
2023-01-27T01:40:44.818Z,552.00
2023-01-27T01:41:44.273Z,547.00
2023-01-27T01:42:44.272Z,548.00
2023-01-27T01:43:44.269Z,551.00
2023-01-27T01:44:44.280Z,552.00
2023-01-27T01:45:44.279Z,546.00
2023-01-27T01:46:44.306Z,553.00
2023-01-27T01:47:44.262Z,557.00
2023-01-27T01:48:44.283Z,549.00
2023-01-27T01:49:44.267Z,551.00
2023-01-27T01:50:44.271Z,553.00
2023-01-27T01:51:44.289Z,550.00
2023-01-27T01:52:44.273Z,549.00
2023-01-27T01:53:44.277Z,554.00
2023-01-27T01:54:44.276Z,552.00
2023-01-27T01:55:44.294Z,550.00
2023-01-27T01:56:44.294Z,548.00
2023-01-27T01:57:44.294Z,548.00
2023-01-27T01:58:44.536Z,554.00
2023-01-27T01:59:44.297Z,550.00
2023-01-27T02:00:44.286Z,555.00
2023-01-27T02:01:44.286Z,549.00
2023-01-27T02:02:44.382Z,551.00
2023-01-27T02:03:44.292Z,555.00
2023-01-27T02:04:44.300Z,547.00
2023-01-27T02:05:44.293Z,549.00
2023-01-27T02:06:44.304Z,549.00
2023-01-27T02:07:44.297Z,550.00
2023-01-27T02:08:44.342Z,552.00
2023-01-27T02:09:44.289Z,549.00
2023-01-27T02:10:44.290Z,555.00
2023-01-27T02:11:44.284Z,552.00
2023-01-27T02:12:44.283Z,553.00
2023-01-27T02:13:44.314Z,551.00
2023-01-27T02:14:44.287Z,547.00
2023-01-27T02:15:44.279Z,551.00
2023-01-27T02:16:44.368Z,550.00
2023-01-27T02:17:44.287Z,554.00
2023-01-27T02:18:44.292Z,552.00
2023-01-27T02:19:44.284Z,552.00
2023-01-27T02:20:44.278Z,551.00
2023-01-27T02:21:44.282Z,548.00
2023-01-27T02:22:44.271Z,553.00
2023-01-27T02:23:44.283Z,550.00
2023-01-27T02:24:44.274Z,545.00
2023-01-27T02:25:44.270Z,546.00
2023-01-27T02:26:44.288Z,546.00
2023-01-27T02:27:44.280Z,547.00
2023-01-27T02:28:44.280Z,549.00
2023-01-27T02:29:44.280Z,549.00
2023-01-27T02:30:44.367Z,553.00
2023-01-27T02:31:44.456Z,550.00
2023-01-27T02:32:44.292Z,549.00
2023-01-27T02:33:44.287Z,548.00
2023-01-27T02:34:44.311Z,553.00
2023-01-27T02:35:44.316Z,554.00
2023-01-27T02:36:44.313Z,547.00
2023-01-27T02:37:44.307Z,553.00
2023-01-27T02:38:44.297Z,547.00
2023-01-27T02:39:44.296Z,548.00
2023-01-27T02:40:44.303Z,550.00
2023-01-27T02:41:44.301Z,549.00
2023-01-27T02:42:44.302Z,553.00
2023-01-27T02:43:44.309Z,550.00
2023-01-27T02:44:44.302Z,550.00
2023-01-27T02:45:44.298Z,550.00
2023-01-27T02:46:44.330Z,548.00
2023-01-27T02:47:44.306Z,548.00
2023-01-27T02:48:44.322Z,549.00
2023-01-27T02:49:44.296Z,550.00
2023-01-27T02:50:44.315Z,549.00
2023-01-27T02:51:44.313Z,552.00
2023-01-27T02:52:44.322Z,550.00
2023-01-27T02:53:44.350Z,548.00
2023-01-27T02:54:44.348Z,551.00
2023-01-27T02:55:44.316Z,550.00
2023-01-27T02:56:44.319Z,546.00
2023-01-27T02:57:44.319Z,549.00
2023-01-27T02:58:44.330Z,545.00
2023-01-27T02:59:44.337Z,550.00
2023-01-27T03:00:44.322Z,551.00
2023-01-27T03:01:44.386Z,552.00
2023-01-27T03:02:44.366Z,548.00
2023-01-27T03:03:44.453Z,550.00
2023-01-27T03:04:44.342Z,551.00
2023-01-27T03:05:44.351Z,545.00
2023-01-27T03:06:44.351Z,550.00
2023-01-27T03:07:44.345Z,553.00
2023-01-27T03:08:44.360Z,546.00
2023-01-27T03:09:44.353Z,550.00
2023-01-27T03:10:44.385Z,549.00
2023-01-27T03:11:44.359Z,544.00
2023-01-27T03:12:44.374Z,546.00
2023-01-27T03:13:44.457Z,546.00
2023-01-27T03:14:44.375Z,546.00
2023-01-27T03:15:44.414Z,545.00
2023-01-27T03:16:44.392Z,545.00
2023-01-27T03:17:44.388Z,545.00
2023-01-27T03:18:44.405Z,550.00
2023-01-27T03:19:44.404Z,546.00
2023-01-27T03:20:44.437Z,550.00
2023-01-27T03:21:44.415Z,548.00
2023-01-27T03:22:44.411Z,550.00
2023-01-27T03:23:44.413Z,549.00
2023-01-27T03:24:44.418Z,549.00
2023-01-27T03:25:44.417Z,547.00
2023-01-27T03:26:44.418Z,545.00
2023-01-27T03:27:44.423Z,548.00
2023-01-27T03:28:44.419Z,549.00
2023-01-27T03:29:44.416Z,549.00
2023-01-27T03:30:44.477Z,547.00
2023-01-27T03:31:44.574Z,542.00
2023-01-27T03:32:44.418Z,545.00
2023-01-27T03:33:44.412Z,550.00
2023-01-27T03:34:44.410Z,544.00
2023-01-27T03:35:44.417Z,538.00
2023-01-27T03:36:44.425Z,547.00
2023-01-27T03:37:44.432Z,550.00
2023-01-27T03:38:44.443Z,548.00
2023-01-27T03:39:44.436Z,548.00
2023-01-27T03:40:44.441Z,547.00
2023-01-27T03:41:44.441Z,547.00
2023-01-27T03:42:44.452Z,546.00
2023-01-27T03:43:44.461Z,548.00
2023-01-27T03:44:44.459Z,550.00
2023-01-27T03:45:44.468Z,543.00
2023-01-27T03:46:44.469Z,551.00
2023-01-27T03:47:44.471Z,545.00
2023-01-27T03:48:44.464Z,545.00
2023-01-27T03:49:44.462Z,546.00
2023-01-27T03:50:44.471Z,545.00
2023-01-27T03:51:44.468Z,546.00
2023-01-27T03:52:44.463Z,547.00
2023-01-27T03:53:44.477Z,542.00
2023-01-27T03:54:44.476Z,546.00
2023-01-27T03:55:44.482Z,542.00
2023-01-27T03:56:44.479Z,549.00
2023-01-27T03:57:44.485Z,545.00
2023-01-27T03:58:44.498Z,546.00
2023-01-27T03:59:44.507Z,545.00
2023-01-27T04:00:44.508Z,545.00
2023-01-27T04:01:44.557Z,540.00
2023-01-27T04:02:44.533Z,540.00
2023-01-27T04:03:44.526Z,544.00
2023-01-27T04:04:44.521Z,544.00
2023-01-27T04:05:44.526Z,545.00
2023-01-27T04:06:44.519Z,546.00
2023-01-27T04:07:44.537Z,546.00
2023-01-27T04:08:44.537Z,545.00
2023-01-27T04:09:44.533Z,541.00
2023-01-27T04:10:44.516Z,543.00
2023-01-27T04:11:44.532Z,547.00
2023-01-27T04:12:44.507Z,547.00
2023-01-27T04:13:44.505Z,541.00
2023-01-27T04:14:44.515Z,541.00
2023-01-27T04:15:44.519Z,538.00
2023-01-27T04:16:44.505Z,542.00
2023-01-27T04:17:44.504Z,544.00
2023-01-27T04:18:44.505Z,540.00
2023-01-27T04:19:44.497Z,543.00
2023-01-27T04:20:44.510Z,535.00
2023-01-27T04:21:44.492Z,542.00
2023-01-27T04:22:44.505Z,542.00
2023-01-27T04:23:44.499Z,538.00
2023-01-27T04:24:44.501Z,539.00
2023-01-27T04:25:44.496Z,538.00
2023-01-27T04:26:44.488Z,538.00
2023-01-27T04:27:44.495Z,537.00
2023-01-27T04:28:45.001Z,534.00
2023-01-27T04:29:44.502Z,537.00
2023-01-27T04:30:44.505Z,532.00
2023-01-27T04:31:44.581Z,534.00
2023-01-27T04:32:44.502Z,539.00
2023-01-27T04:33:44.511Z,538.00
2023-01-27T04:34:44.528Z,540.00
2023-01-27T04:35:44.513Z,539.00
2023-01-27T04:36:44.521Z,539.00
2023-01-27T04:37:44.526Z,537.00
2023-01-27T04:38:44.528Z,536.00
2023-01-27T04:39:44.551Z,539.00
2023-01-27T04:40:44.538Z,538.00
2023-01-27T04:41:44.535Z,532.00
2023-01-27T04:42:44.534Z,538.00
2023-01-27T04:43:44.541Z,534.00
2023-01-27T04:44:44.557Z,535.00
2023-01-27T04:45:44.640Z,538.00
2023-01-27T04:46:44.565Z,533.00
2023-01-27T04:47:44.568Z,535.00
2023-01-27T04:48:44.563Z,536.00
2023-01-27T04:49:44.580Z,539.00
2023-01-27T04:50:44.564Z,535.00
2023-01-27T04:51:46.229Z,535.00
2023-01-27T04:52:44.568Z,536.00
2023-01-27T04:53:44.579Z,534.00
2023-01-27T04:54:44.590Z,535.00
2023-01-27T04:55:44.603Z,535.00
2023-01-27T04:56:44.592Z,537.00
2023-01-27T04:57:44.578Z,535.00
2023-01-27T04:58:44.579Z,531.00
2023-01-27T04:59:44.581Z,535.00
2023-01-27T05:00:44.600Z,536.00
2023-01-27T05:01:44.625Z,533.00
2023-01-27T05:02:44.683Z,535.00
2023-01-27T05:03:44.583Z,534.00
2023-01-27T05:04:44.587Z,531.00
2023-01-27T05:05:44.587Z,535.00
2023-01-27T05:06:44.597Z,533.00
2023-01-27T05:07:44.593Z,530.00
2023-01-27T05:08:44.588Z,531.00
2023-01-27T05:09:44.612Z,526.00
2023-01-27T05:10:44.596Z,536.00
2023-01-27T05:11:44.613Z,531.00
2023-01-27T05:12:44.621Z,531.00
2023-01-27T05:13:44.632Z,535.00
2023-01-27T05:14:44.621Z,532.00
2023-01-27T05:15:44.727Z,531.00
2023-01-27T05:16:44.723Z,532.00
2023-01-27T05:17:44.635Z,531.00
2023-01-27T05:18:44.632Z,531.00
2023-01-27T05:19:44.635Z,528.00
2023-01-27T05:20:44.630Z,535.00
2023-01-27T05:21:44.643Z,530.00
2023-01-27T05:22:44.636Z,529.00
2023-01-27T05:23:44.642Z,533.00
2023-01-27T05:24:44.641Z,525.00
2023-01-27T05:25:44.647Z,523.00
2023-01-27T05:26:44.653Z,529.00
2023-01-27T05:27:44.649Z,524.00
2023-01-27T05:28:44.658Z,528.00
2023-01-27T05:29:44.660Z,526.00
2023-01-27T05:30:44.699Z,528.00
2023-01-27T05:31:44.821Z,529.00
2023-01-27T05:32:44.671Z,526.00
2023-01-27T05:33:44.680Z,531.00
2023-01-27T05:34:44.680Z,526.00
2023-01-27T05:35:44.717Z,531.00
2023-01-27T05:36:44.682Z,527.00
2023-01-27T05:37:44.692Z,529.00
2023-01-27T05:38:44.692Z,531.00
2023-01-27T05:39:44.688Z,529.00
2023-01-27T05:40:44.698Z,531.00
2023-01-27T05:41:44.698Z,526.00
2023-01-27T05:42:44.704Z,529.00
2023-01-27T05:43:44.702Z,528.00
2023-01-27T05:44:44.691Z,533.00
2023-01-27T05:45:44.680Z,527.00
2023-01-27T05:46:45.227Z,525.00
2023-01-27T05:47:44.679Z,526.00
2023-01-27T05:48:44.690Z,521.00
2023-01-27T05:49:44.680Z,526.00
2023-01-27T05:50:44.679Z,525.00
2023-01-27T05:51:44.679Z,525.00
2023-01-27T05:52:44.687Z,527.00
2023-01-27T05:53:44.676Z,524.00
2023-01-27T05:54:44.695Z,526.00
2023-01-27T05:55:44.741Z,525.00
2023-01-27T05:56:44.672Z,527.00
2023-01-27T05:57:44.691Z,525.00
2023-01-27T05:58:44.732Z,525.00
2023-01-27T05:59:44.677Z,522.00
2023-01-27T06:00:44.679Z,520.00
2023-01-27T06:01:44.843Z,524.00
2023-01-27T06:02:44.824Z,523.00
2023-01-27T06:03:44.692Z,528.00
2023-01-27T06:04:44.680Z,523.00
2023-01-27T06:05:44.665Z,527.00
2023-01-27T06:06:44.677Z,523.00
2023-01-27T06:07:44.673Z,524.00
2023-01-27T06:08:44.680Z,521.00
2023-01-27T06:09:44.679Z,528.00
2023-01-27T06:10:44.682Z,524.00
2023-01-27T06:11:44.689Z,522.00
2023-01-27T06:12:44.685Z,526.00
2023-01-27T06:13:44.687Z,521.00
2023-01-27T06:14:44.704Z,521.00
2023-01-27T06:15:44.676Z,525.00
2023-01-27T06:16:44.759Z,521.00
2023-01-27T06:17:44.690Z,520.00
2023-01-27T06:18:44.682Z,525.00
2023-01-27T06:19:44.681Z,522.00
2023-01-27T06:20:44.678Z,527.00
2023-01-27T06:21:44.693Z,523.00
2023-01-27T06:22:44.691Z,524.00
2023-01-27T06:23:44.705Z,528.00
2023-01-27T06:24:44.690Z,523.00
2023-01-27T06:25:44.698Z,522.00
2023-01-27T06:26:44.702Z,523.00
2023-01-27T06:27:44.705Z,524.00
2023-01-27T06:28:44.725Z,519.00
2023-01-27T06:29:44.711Z,526.00
2023-01-27T06:30:44.836Z,517.00
2023-01-27T06:31:44.762Z,519.00
2023-01-27T06:32:44.715Z,522.00
2023-01-27T06:33:44.743Z,522.00
2023-01-27T06:34:44.748Z,520.00
2023-01-27T06:35:44.736Z,527.00
2023-01-27T06:36:44.730Z,524.00
2023-01-27T06:37:44.735Z,528.00
2023-01-27T06:38:44.791Z,520.00
2023-01-27T06:39:44.749Z,527.00
2023-01-27T06:40:44.769Z,525.00
2023-01-27T06:41:44.728Z,524.00
2023-01-27T06:42:44.742Z,524.00
2023-01-27T06:43:44.735Z,521.00
2023-01-27T06:44:44.730Z,525.00
2023-01-27T06:45:44.741Z,534.00
2023-01-27T06:46:44.783Z,529.00
2023-01-27T06:47:44.735Z,526.00
2023-01-27T06:48:44.737Z,536.00
2023-01-27T06:49:44.719Z,544.00
2023-01-27T06:50:44.718Z,551.00
2023-01-27T06:51:44.713Z,560.00
2023-01-27T06:52:44.712Z,565.00
2023-01-27T06:53:44.719Z,576.00
2023-01-27T06:54:44.707Z,592.00
2023-01-27T06:55:44.712Z,609.00
2023-01-27T06:56:44.695Z,618.00
2023-01-27T06:57:44.682Z,630.00
2023-01-27T06:58:44.703Z,641.00
2023-01-27T06:59:44.666Z,651.00
2023-01-27T07:00:44.669Z,660.00
2023-01-27T07:01:44.776Z,661.00
2023-01-27T07:02:44.750Z,664.00
2023-01-27T07:03:45.215Z,681.00
2023-01-27T07:04:44.731Z,716.00
2023-01-27T07:05:44.674Z,772.00
2023-01-27T09:01:44.715Z,1469.00
2023-01-27T09:04:44.767Z,1731.00
2023-01-27T09:06:44.655Z,1798.00
2023-01-27T09:07:44.653Z,1845.00
2023-01-27T09:08:44.686Z,1782.00
2023-01-27T09:09:44.652Z,1825.00
2023-01-27T09:10:44.683Z,1831.00
2023-01-27T09:11:44.826Z,1844.00
2023-01-27T09:12:44.730Z,1856.00
2023-01-27T09:13:44.652Z,1781.00
2023-01-27T09:14:44.736Z,1204.00
2023-01-27T09:15:51.728Z,1160.00
2023-01-27T09:16:44.693Z,848.00
2023-01-27T09:17:44.697Z,613.00
2023-01-27T09:18:44.694Z,656.00
2023-01-27T09:19:44.719Z,1046.00
2023-01-27T09:20:44.726Z,1210.00
2023-01-27T09:21:44.755Z,1394.00
2023-01-27T09:22:44.853Z,1458.00
2023-01-27T09:23:44.767Z,1572.00
2023-01-27T09:24:44.769Z,1682.00
2023-01-27T09:25:44.804Z,1723.00
2023-01-27T09:26:44.793Z,1755.00
2023-01-27T09:27:44.800Z,1795.00
2023-01-27T09:28:44.808Z,1838.00
2023-01-27T09:29:44.805Z,1883.00
2023-01-27T09:30:46.223Z,1894.00
2023-01-27T09:31:44.995Z,1891.00
2023-01-27T09:32:44.853Z,1959.00
2023-01-27T09:33:44.852Z,1970.00
2023-01-27T09:34:44.842Z,2031.00
2023-01-27T09:35:44.848Z,2049.00
2023-01-27T09:36:44.855Z,2100.00
2023-01-27T09:37:44.845Z,2132.00
2023-01-27T09:38:44.876Z,2154.00
2023-01-27T09:39:44.885Z,2177.00
2023-01-27T09:40:44.857Z,2195.00
2023-01-27T09:41:44.851Z,2222.00
2023-01-27T09:42:44.867Z,2242.00
2023-01-27T09:43:44.856Z,2269.00
2023-01-27T09:44:44.857Z,2294.00
2023-01-27T09:45:44.863Z,2323.00
2023-01-27T09:46:44.865Z,2431.00
2023-01-27T09:47:44.841Z,2432.00
2023-01-27T09:48:44.840Z,2440.00
2023-01-27T09:49:44.843Z,2409.00
2023-01-27T09:50:44.837Z,2398.00
2023-01-27T09:51:44.848Z,2424.00
2023-01-27T09:52:47.793Z,2446.00
2023-01-27T09:53:44.841Z,2437.00
2023-01-27T09:54:44.852Z,2441.00
2023-01-27T09:55:44.848Z,2429.00
2023-01-27T09:56:44.864Z,2433.00
2023-01-27T09:57:44.860Z,2446.00
2023-01-27T09:58:44.846Z,2456.00
2023-01-27T09:59:44.875Z,2462.00
2023-01-27T10:00:45.784Z,2481.00
2023-01-27T10:01:44.894Z,2472.00
2023-01-27T10:02:44.839Z,2487.00
2023-01-27T10:03:44.839Z,2506.00
2023-01-27T10:04:44.871Z,2510.00
2023-01-27T10:05:44.824Z,2524.00
2023-01-27T10:06:44.831Z,2525.00
2023-01-27T10:07:44.822Z,2513.00
2023-01-27T10:08:44.824Z,2538.00
2023-01-27T10:09:44.834Z,2546.00
2023-01-27T10:10:44.807Z,2577.00
2023-01-27T10:11:44.806Z,2592.00
2023-01-27T10:12:44.802Z,2579.00
2023-01-27T10:13:44.878Z,2579.00
2023-01-27T10:14:44.807Z,2594.00
2023-01-27T10:15:44.800Z,2599.00
2023-01-27T10:16:44.806Z,2609.00
2023-01-27T10:17:44.791Z,2629.00
2023-01-27T10:18:44.771Z,2582.00
2023-01-27T10:19:44.761Z,2551.00
2023-01-27T10:20:45.286Z,2598.00
2023-01-27T10:21:44.751Z,2627.00
2023-01-27T10:22:44.909Z,2653.00
2023-01-27T10:23:44.760Z,2649.00
2023-01-27T10:24:44.756Z,2629.00
2023-01-27T10:25:44.718Z,2590.00
2023-01-27T10:26:44.767Z,2577.00
2023-01-27T10:27:44.721Z,2608.00
2023-01-27T10:28:44.717Z,2627.00
2023-01-27T10:29:44.735Z,2660.00
2023-01-27T10:30:44.782Z,2651.00
2023-01-27T10:31:44.786Z,2573.00
2023-01-27T10:32:44.856Z,2579.00
2023-01-27T10:33:44.735Z,2603.00
2023-01-27T10:34:44.687Z,2649.00
2023-01-27T10:35:44.675Z,2649.00
2023-01-27T10:36:44.701Z,2650.00
2023-01-27T10:37:44.669Z,2569.00
2023-01-27T10:38:44.681Z,2542.00
2023-01-27T10:39:44.672Z,2544.00
2023-01-27T10:44:44.686Z,2600.00
2023-01-27T11:04:44.692Z,1449.00
2023-01-27T11:05:44.669Z,1534.00
2023-01-27T11:06:44.690Z,1678.00
2023-01-27T11:07:44.711Z,1839.00
2023-01-27T11:08:44.708Z,1765.00
2023-01-27T11:09:44.745Z,1779.00
2023-01-27T11:10:44.723Z,1918.00
2023-01-27T11:11:44.781Z,1986.00
2023-01-27T11:12:44.715Z,1819.00
2023-01-27T11:13:44.819Z,1643.00
2023-01-27T11:14:44.714Z,1723.00
2023-01-27T11:15:44.714Z,1686.00
2023-01-27T11:16:44.777Z,1629.00
2023-01-27T11:17:44.735Z,1559.00
2023-01-27T11:18:44.734Z,1467.00
2023-01-27T11:19:44.848Z,1566.00
2023-01-27T11:20:44.774Z,1563.00
2023-01-27T11:21:47.276Z,1574.00
2023-01-27T11:22:45.759Z,1417.00
2023-01-27T11:23:44.748Z,1559.00
2023-01-27T11:24:44.790Z,1464.00
2023-01-27T11:25:44.765Z,1496.00
2023-01-27T11:26:44.766Z,1615.00
2023-01-27T11:27:44.777Z,1593.00
2023-01-27T11:28:44.775Z,1685.00
2023-01-27T11:29:44.873Z,1652.00
2023-01-27T11:30:44.875Z,1416.00
2023-01-27T11:31:44.822Z,1615.00
2023-01-27T11:32:44.791Z,1767.00
2023-01-27T11:33:44.810Z,1594.00
2023-01-27T11:34:44.804Z,1526.00
2023-01-27T11:35:44.841Z,1588.00
2023-01-27T11:36:44.811Z,1740.00
2023-01-27T11:37:44.832Z,1751.00
2023-01-27T11:38:44.819Z,1964.00
2023-01-27T11:39:44.807Z,2032.00
2023-01-27T11:40:44.824Z,2032.00
2023-01-27T11:41:44.844Z,2037.00
2023-01-27T11:42:44.812Z,2042.00
2023-01-27T11:43:44.820Z,2066.00
2023-01-27T11:44:44.811Z,2141.00
2023-01-27T11:45:44.918Z,2074.00
2023-01-27T11:46:44.826Z,2071.00
2023-01-27T11:47:44.821Z,2142.00
2023-01-27T11:48:44.823Z,2185.00
2023-01-27T11:49:44.819Z,2214.00
2023-01-27T11:50:44.845Z,2232.00
2023-01-27T11:51:44.846Z,2222.00
2023-01-27T11:52:44.872Z,2235.00
2023-01-27T11:53:45.282Z,2233.00
2023-01-27T11:54:44.821Z,2238.00
2023-01-27T11:55:44.812Z,2236.00
2023-01-27T11:56:44.859Z,2272.00
2023-01-27T11:57:44.817Z,2297.00
2023-01-27T11:58:44.815Z,2304.00
2023-01-27T11:59:44.819Z,2307.00
2023-01-27T12:00:44.805Z,2301.00
2023-01-27T12:01:44.893Z,2311.00
2023-01-27T12:02:45.039Z,2313.00
2023-01-27T12:03:44.875Z,2308.00
2023-01-27T12:04:44.864Z,2327.00
2023-01-27T12:05:44.799Z,2330.00
2023-01-27T12:06:44.802Z,2328.00
2023-01-27T12:09:44.821Z,2320.00
2023-01-27T12:10:44.813Z,2342.00
2023-01-27T12:11:44.782Z,2361.00
2023-01-27T12:12:44.786Z,2351.00
2023-01-27T12:13:44.773Z,2358.00
2023-01-27T12:14:44.779Z,2339.00
2023-01-27T12:15:44.837Z,2333.00
2023-01-27T12:16:44.763Z,2342.00
2023-01-27T12:17:44.767Z,2343.00
2023-01-27T12:18:44.756Z,2344.00
2023-01-27T12:19:44.758Z,2343.00
2023-01-27T12:20:44.732Z,2337.00
2023-01-27T12:21:44.733Z,2338.00
2023-01-27T12:22:44.732Z,2340.00
2023-01-27T12:23:44.724Z,2333.00
2023-01-27T12:24:44.717Z,2340.00
2023-01-27T12:25:44.760Z,2348.00
2023-01-27T12:26:44.726Z,2328.00
2023-01-27T12:27:44.687Z,2313.00
2023-01-27T12:28:44.690Z,2338.00
2023-01-27T12:29:44.668Z,2325.00
2023-01-27T12:30:44.784Z,2325.00
2023-01-27T12:31:44.739Z,2329.00
2023-01-27T12:33:44.668Z,2345.00
2023-01-27T18:54:43.634Z,1102.00
2023-01-27T18:55:43.656Z,1094.00
2023-01-27T18:56:43.642Z,1065.00
2023-01-27T18:57:43.649Z,1057.00
2023-01-27T18:58:43.647Z,1079.00
2023-01-27T18:59:43.656Z,1098.00
2023-01-27T19:00:43.671Z,1090.00
2023-01-27T19:01:43.686Z,1056.00
2023-01-27T19:02:43.667Z,1040.00
2023-01-27T19:03:43.656Z,1060.00
2023-01-27T19:04:43.686Z,1080.00
2023-01-27T19:05:43.658Z,1073.00
2023-01-27T19:06:43.662Z,1082.00
2023-01-27T19:07:43.658Z,1045.00
2023-01-27T19:08:43.655Z,1037.00
2023-01-27T19:09:43.657Z,1068.00
2023-01-27T19:10:43.660Z,1069.00
2023-01-27T19:11:43.655Z,1063.00
2023-01-27T19:12:43.665Z,1062.00
2023-01-27T19:13:43.663Z,1030.00
2023-01-27T19:14:43.661Z,1053.00
2023-01-27T19:15:43.666Z,1051.00
2023-01-27T19:16:43.666Z,1061.00
2023-01-27T19:17:43.662Z,1067.00
2023-01-27T19:18:43.661Z,1051.00
2023-01-27T19:19:43.710Z,1015.00
2023-01-27T19:20:43.674Z,1039.00
2023-01-27T19:21:43.673Z,1040.00
2023-01-27T19:22:43.687Z,1057.00
2023-01-27T19:23:43.683Z,1051.00
2023-01-27T19:24:43.698Z,1019.00
2023-01-27T19:25:43.677Z,1023.00
2023-01-27T19:26:43.674Z,1025.00
2023-01-27T19:27:43.683Z,1051.00
2023-01-27T19:28:43.677Z,1051.00
2023-01-27T19:29:43.677Z,1055.00
2023-01-27T19:30:43.774Z,1019.00
2023-01-27T19:31:43.725Z,1018.00
2023-01-27T19:32:43.690Z,1024.00
2023-01-27T19:33:43.697Z,1035.00
2023-01-27T19:34:43.692Z,1046.00
2023-01-27T19:35:43.693Z,1046.00
2023-01-27T19:36:43.682Z,1007.00
2023-01-27T19:37:43.678Z,1034.00
2023-01-27T19:38:43.680Z,1038.00
2023-01-27T19:39:43.679Z,1041.00
2023-01-27T19:40:43.692Z,1042.00
2023-01-27T19:41:43.676Z,1014.00
2023-01-27T19:42:43.675Z,1002.00
2023-01-27T19:43:43.677Z,1018.00
2023-01-27T19:44:43.687Z,1008.00
2023-01-27T19:45:43.701Z,1035.00
2023-01-27T19:46:43.679Z,1045.00
2023-01-27T19:47:43.684Z,1004.00
2023-01-27T19:48:43.683Z,995.00
2023-01-27T19:49:43.692Z,1025.00
2023-01-27T19:50:43.696Z,1020.00
2023-01-27T19:51:43.686Z,1030.00
2023-01-27T19:52:43.692Z,1036.00
2023-01-27T19:53:43.681Z,1001.00
2023-01-27T19:54:43.686Z,1002.00
2023-01-27T19:55:43.695Z,1005.00
2023-01-27T19:56:43.699Z,1016.00
2023-01-27T19:57:43.695Z,1017.00
2023-01-27T19:58:43.704Z,1016.00
2023-01-27T19:59:43.697Z,984.00
2023-01-27T20:00:43.796Z,992.00
2023-01-27T20:01:43.706Z,998.00
2023-01-27T20:02:43.701Z,1009.00
2023-01-27T20:03:43.697Z,1026.00
2023-01-27T20:04:43.784Z,999.00
2023-01-27T20:05:43.744Z,971.00
2023-01-27T20:06:43.711Z,983.00
2023-01-27T20:07:43.711Z,1003.00
2023-01-27T20:08:43.748Z,1005.00
2023-01-27T20:09:43.716Z,1023.00
2023-01-27T20:10:43.720Z,1022.00
2023-01-27T20:11:43.721Z,947.00
2023-01-27T20:12:43.716Z,970.00
2023-01-27T20:13:43.722Z,994.00
2023-01-27T20:14:43.748Z,1007.00
2023-01-27T20:15:43.770Z,1011.00
2023-01-27T20:16:43.777Z,963.00
2023-01-27T20:17:43.735Z,969.00
2023-01-27T20:18:43.737Z,974.00
2023-01-27T20:19:43.743Z,995.00
2023-01-27T20:20:43.733Z,1009.00
2023-01-27T20:21:43.745Z,993.00
2023-01-27T20:22:43.740Z,953.00
2023-01-27T20:23:43.745Z,958.00
2023-01-27T20:24:43.747Z,980.00
2023-01-27T20:25:43.746Z,998.00
2023-01-27T20:26:43.757Z,986.00
2023-01-27T20:27:43.808Z,973.00
2023-01-27T20:28:43.775Z,936.00
2023-01-27T20:29:43.785Z,967.00
2023-01-27T20:30:43.833Z,973.00
2023-01-27T20:31:43.953Z,961.00
2023-01-27T20:32:43.793Z,980.00
2023-01-27T20:33:43.805Z,942.00
2023-01-27T20:34:43.803Z,936.00
2023-01-27T20:35:43.816Z,942.00
2023-01-27T20:36:43.828Z,959.00
2023-01-27T20:37:43.807Z,961.00
2023-01-27T20:38:43.829Z,969.00
2023-01-27T20:39:43.812Z,914.00
2023-01-27T20:40:43.819Z,933.00
2023-01-27T20:41:43.833Z,948.00
2023-01-27T20:42:43.836Z,962.00
2023-01-27T20:43:43.840Z,972.00
2023-01-27T20:44:43.844Z,967.00
2023-01-27T20:45:43.865Z,932.00
2023-01-27T20:46:43.857Z,914.00
2023-01-27T20:47:43.859Z,946.00
2023-01-27T20:48:43.875Z,952.00
2023-01-27T20:49:43.864Z,959.00
2023-01-27T20:50:43.868Z,963.00
2023-01-27T20:51:43.884Z,925.00
2023-01-27T20:52:43.883Z,915.00
2023-01-27T20:53:43.881Z,940.00
2023-01-27T20:54:43.888Z,954.00
2023-01-27T20:55:43.892Z,962.00
2023-01-27T20:56:43.907Z,929.00
2023-01-27T20:57:43.902Z,900.00
2023-01-27T20:58:43.907Z,913.00
2023-01-27T20:59:43.915Z,926.00
2023-01-27T21:00:43.904Z,963.00
2023-01-27T21:01:43.899Z,955.00
2023-01-27T21:02:43.911Z,918.00
2023-01-27T21:03:43.908Z,911.00
2023-01-27T21:04:43.907Z,907.00